Time;durP1;ratioP1;P1;durP2;ratioP2;P2;SDS_P1;SDS_P2;PMS_P1;PMS_P2;Temp;Humidity;BMP_temperature;BMP_pressure;BME280_temperature;BME280_humidity;BME280_pressure;Samples;Min_cycle;Max_cycle;Signal;HPM_P1;HPM_P2
2021/04/14 00:01:52;;;;;;;23.00;14.88;;;9.20;93.80;;;;;;5093933;28;20031;-79
2021/04/14 00:04:18;;;;;;;22.33;13.57;;;9.20;93.70;;;;;;5094819;28;20020;-79
2021/04/14 00:06:44;;;;;;;23.23;14.75;;;9.20;93.60;;;;;;5095475;28;20067;-79
2021/04/14 00:09:09;;;;;;;24.48;14.80;;;9.20;93.60;;;;;;5095042;28;20102;-80
2021/04/14 00:11:36;;;;;;;20.08;13.88;;;9.20;93.70;;;;;;5093492;28;20040;-80
2021/04/14 00:14:03;;;;;;;19.33;13.45;;;9.20;93.60;;;;;;5093369;28;20055;-79
2021/04/14 00:16:29;;;;;;;21.02;14.23;;;9.20;93.50;;;;;;5095377;28;20027;-80
2021/04/14 00:18:55;;;;;;;20.80;14.00;;;9.20;93.40;;;;;;5094903;28;20028;-80
2021/04/14 00:21:23;;;;;;;26.38;15.45;;;9.20;93.30;;;;;;5094776;28;20020;-79
2021/04/14 00:23:50;;;;;;;24.23;15.18;;;9.10;93.20;;;;;;5095257;28;20085;-79
2021/04/14 00:26:16;;;;;;;24.75;15.77;;;9.00;93.10;;;;;;5093931;28;20016;-79
2021/04/14 00:28:43;;;;;;;23.50;14.80;;;9.00;93.10;;;;;;5093913;28;20362;-79
2021/04/14 00:31:09;;;;;;;24.60;14.93;;;9.00;93.10;;;;;;5093861;28;20032;-79
2021/04/14 00:33:35;;;;;;;24.60;15.32;;;8.90;93.10;;;;;;5093170;28;20034;-79
2021/04/14 00:36:01;;;;;;;24.98;15.88;;;8.80;93.10;;;;;;5093114;28;20020;-80
2021/04/14 00:38:27;;;;;;;24.98;16.63;;;8.80;93.20;;;;;;5095131;28;20020;-79
2021/04/14 00:41:11;;;;;;;30.90;17.10;;;8.70;93.20;;;;;;5094507;28;20031;-79
2021/04/14 00:43:37;;;;;;;24.95;16.00;;;8.70;93.30;;;;;;5081402;28;20027;-79
2021/04/14 00:46:04;;;;;;;23.30;15.02;;;8.60;93.40;;;;;;5094762;28;20020;-79
2021/04/14 00:48:30;;;;;;;28.58;18.65;;;8.60;93.50;;;;;;5094637;28;20047;-79
2021/04/14 00:50:57;;;;;;;26.48;17.85;;;8.60;93.50;;;;;;5092705;28;20112;-79
2021/04/14 00:53:22;;;;;;;28.90;17.40;;;8.50;93.50;;;;;;5090642;28;20405;-79
2021/04/14 00:55:49;;;;;;;41.70;22.65;;;8.50;93.60;;;;;;5074434;28;20017;-79
2021/04/14 00:58:15;;;;;;;64.93;38.75;;;8.40;93.60;;;;;;5087270;28;20089;-80
2021/04/14 01:00:50;;;;;;;31.13;19.90;;;8.40;93.60;;;;;;5081538;28;20415;-79
2021/04/14 01:03:25;;;;;;;43.35;27.60;;;8.40;93.70;;;;;;5094993;28;20107;-79
2021/04/14 01:05:53;;;;;;;44.28;26.95;;;8.40;93.70;;;;;;5096231;28;20518;-78
2021/04/14 01:08:19;;;;;;;38.92;22.40;;;8.30;93.70;;;;;;5095713;28;20378;-79
2021/04/14 01:10:45;;;;;;;33.55;19.25;;;8.20;93.80;;;;;;5097185;28;20035;-78
2021/04/14 01:13:12;;;;;;;35.70;17.67;;;8.20;93.80;;;;;;5095791;28;20055;-79
2021/04/14 01:15:41;;;;;;;32.17;17.88;;;8.20;93.80;;;;;;5094492;28;20066;-79
2021/04/14 01:18:09;;;;;;;30.33;17.33;;;8.10;94.00;;;;;;5094153;28;20023;-78
2021/04/14 01:20:35;;;;;;;28.73;17.00;;;8.10;94.20;;;;;;5099523;28;20028;-79
2021/04/14 01:23:01;;;;;;;28.05;16.95;;;8.10;94.40;;;;;;5100973;28;20023;-78
2021/04/14 01:25:33;;;;;;;28.02;17.08;;;8.10;94.60;;;;;;5094582;28;20020;-79
2021/04/14 01:27:59;;;;;;;28.67;17.55;;;8.10;94.80;;;;;;5092721;28;20016;-78
2021/04/14 01:30:27;;;;;;;29.52;19.27;;;8.10;94.90;;;;;;5093943;28;20035;-78
2021/04/14 01:32:53;;;;;;;33.42;22.00;;;8.10;95.00;;;;;;5093306;28;20036;-78
2021/04/14 01:35:22;;;;;;;40.08;21.95;;;8.10;95.10;;;;;;5093452;28;20142;-79
2021/04/14 01:37:49;;;;;;;63.35;29.33;;;8.20;95.20;;;;;;5088089;28;20027;-78
2021/04/14 01:40:16;;;;;;;81.07;38.10;;;8.20;95.20;;;;;;5090086;28;20031;-78
2021/04/14 01:42:42;;;;;;;64.15;36.15;;;8.20;95.30;;;;;;5102521;28;20028;-79
2021/04/14 01:45:13;;;;;;;53.00;30.45;;;8.20;95.30;;;;;;5093103;28;20024;-78
2021/04/14 01:47:39;;;;;;;36.17;21.63;;;8.30;95.30;;;;;;5092174;28;20024;-79
2021/04/14 01:50:06;;;;;;;27.80;16.55;;;8.20;95.30;;;;;;5093240;28;20024;-79
2021/04/14 01:52:32;;;;;;;28.38;15.95;;;8.20;95.20;;;;;;5092105;28;20026;-79
2021/04/14 01:54:58;;;;;;;26.55;15.88;;;8.30;95.20;;;;;;5078853;28;20374;-79
2021/04/14 01:57:24;;;;;;;26.63;16.40;;;8.20;95.00;;;;;;5092319;28;20108;-79
2021/04/14 01:59:50;;;;;;;22.95;15.70;;;8.20;94.90;;;;;;5093092;28;20462;-78
2021/04/14 02:02:16;;;;;;;25.17;15.57;;;8.20;94.90;;;;;;5093344;28;20040;-78
2021/04/14 02:04:43;;;;;;;26.92;15.75;;;8.10;94.80;;;;;;5092906;28;20016;-78
2021/04/14 02:07:09;;;;;;;28.15;16.65;;;8.10;94.70;;;;;;5092789;28;20085;-78
2021/04/14 02:09:35;;;;;;;30.02;18.63;;;8.00;94.80;;;;;;5091717;28;20030;-79
2021/04/14 02:12:00;;;;;;;32.33;19.25;;;8.00;94.80;;;;;;5088577;28;20111;-79
2021/04/14 02:14:26;;;;;;;39.53;20.63;;;8.00;94.80;;;;;;5091753;28;20502;-79
2021/04/14 02:16:51;;;;;;;38.58;22.00;;;7.90;94.80;;;;;;5092174;28;20485;-79
2021/04/14 02:19:17;;;;;;;41.15;21.88;;;7.90;94.80;;;;;;5093044;28;20020;-80
2021/04/14 02:21:43;;;;;;;41.83;23.95;;;7.80;94.80;;;;;;5091869;28;20028;-79
2021/04/14 02:24:08;;;;;;;42.60;22.45;;;7.80;94.90;;;;;;5093115;28;20568;-80
2021/04/14 02:26:34;;;;;;;40.13;22.40;;;7.70;94.80;;;;;;5093601;28;20051;-80
2021/04/14 02:29:00;;;;;;;38.75;21.50;;;7.70;94.90;;;;;;5079285;28;20382;-80
2021/04/14 02:31:30;;;;;;;34.90;19.55;;;7.60;95.00;;;;;;5091260;28;20099;-79
2021/04/14 02:34:02;;;;;;;35.58;19.85;;;7.60;95.10;;;;;;5080828;28;20454;-79
2021/04/14 02:36:28;;;;;;;30.02;17.77;;;7.50;95.10;;;;;;5089339;28;20154;-80
2021/04/14 02:38:54;;;;;;;28.65;18.08;;;7.50;95.20;;;;;;5093038;28;20035;-80
2021/04/14 02:41:20;;;;;;;28.42;17.35;;;7.50;95.30;;;;;;5092884;28;20028;-79
2021/04/14 02:43:51;;;;;;;28.33;17.05;;;7.50;95.40;;;;;;5093494;28;20115;-80
2021/04/14 02:46:17;;;;;;;30.90;17.15;;;7.40;95.40;;;;;;5093102;28;20028;-77
2021/04/14 02:48:42;;;;;;;30.50;17.80;;;7.40;95.40;;;;;;5092615;28;20028;-77
2021/04/14 02:51:09;;;;;;;27.50;16.60;;;7.40;95.50;;;;;;5092034;28;20036;-78
2021/04/14 02:53:34;;;;;;;35.30;21.25;;;7.30;95.50;;;;;;5091587;28;20496;-77
2021/04/14 02:56:00;;;;;;;35.58;19.60;;;7.30;95.60;;;;;;5092144;28;20024;-77
2021/04/14 02:58:27;;;;;;;34.47;19.33;;;7.30;95.60;;;;;;5092748;28;20450;-77
2021/04/14 03:00:53;;;;;;;38.15;20.33;;;7.20;95.70;;;;;;5083950;28;20025;-77
2021/04/14 03:03:18;;;;;;;30.75;18.15;;;7.20;95.70;;;;;;5086864;28;20024;-77
2021/04/14 03:05:44;;;;;;;30.60;16.88;;;7.20;95.70;;;;;;5091623;28;20035;-77
2021/04/14 03:08:10;;;;;;;31.23;18.00;;;7.10;95.80;;;;;;5093062;28;20115;-77
2021/04/14 03:10:36;;;;;;;29.00;17.13;;;7.10;95.90;;;;;;5091736;28;20028;-77
2021/04/14 03:13:04;;;;;;;31.63;19.02;;;7.10;96.10;;;;;;5083014;28;20020;-77
2021/04/14 03:15:33;;;;;;;36.10;20.02;;;7.10;96.30;;;;;;5089854;28;20430;-76
2021/04/14 03:17:59;;;;;;;28.02;17.15;;;7.10;96.40;;;;;;5097212;28;20020;-76
2021/04/14 03:20:25;;;;;;;30.23;17.15;;;7.10;96.40;;;;;;5081736;28;20489;-77
2021/04/14 03:22:54;;;;;;;27.50;16.30;;;7.10;96.50;;;;;;5098489;28;20065;-78
2021/04/14 03:25:21;;;;;;;30.10;16.92;;;7.10;96.50;;;;;;5101175;28;20095;-78
2021/04/14 03:27:47;;;;;;;31.60;18.30;;;7.10;96.60;;;;;;5102815;28;20024;-77
2021/04/14 03:30:13;;;;;;;30.33;18.90;;;7.10;96.60;;;;;;5102431;28;20339;-78
2021/04/14 03:32:39;;;;;;;24.83;16.60;;;7.20;96.70;;;;;;5101719;28;20066;-78
2021/04/14 03:35:05;;;;;;;32.75;17.48;;;7.20;96.70;;;;;;5098985;28;20404;-78
2021/04/14 03:37:31;;;;;;;26.73;16.20;;;7.20;96.80;;;;;;5097061;28;20020;-78
2021/04/14 03:39:57;;;;;;;29.30;16.98;;;7.30;97.10;;;;;;5096825;28;20016;-79
2021/04/14 03:42:23;;;;;;;25.92;16.38;;;7.40;97.50;;;;;;5098986;28;20054;-80
2021/04/14 03:44:53;;;;;;;22.25;14.63;;;7.50;97.80;;;;;;5098192;28;20024;-79
2021/04/14 03:47:20;;;;;;;24.17;15.55;;;7.70;98.00;;;;;;5095990;28;20020;-82
2021/04/14 03:49:46;;;;;;;23.83;15.73;;;7.90;98.30;;;;;;5095143;28;20231;-80
2021/04/14 03:52:12;;;;;;;25.00;14.65;;;8.10;98.40;;;;;;5092166;28;20036;-79
2021/04/14 03:54:38;;;;;;;21.88;14.25;;;8.40;98.40;;;;;;5092196;28;20021;-78
2021/04/14 03:57:04;;;;;;;24.13;13.88;;;8.60;98.00;;;;;;5090800;28;20362;-80
2021/04/14 03:59:30;;;;;;;22.92;14.07;;;8.90;97.70;;;;;;5090962;28;20019;-74
2021/04/14 04:01:55;;;;;;;21.27;12.73;;;9.10;97.30;;;;;;5091925;28;20032;-78
2021/04/14 04:04:22;;;;;;;21.67;12.70;;;9.30;96.90;;;;;;5095489;28;20442;-78
2021/04/14 04:06:47;;;;;;;19.10;12.13;;;9.60;96.80;;;;;;5093427;28;20040;-81
2021/04/14 04:09:13;;;;;;;19.20;12.98;;;9.90;96.70;;;;;;5095105;28;20050;-76
2021/04/14 04:11:39;;;;;;;25.25;13.50;;;10.20;96.60;;;;;;5092501;28;20070;-76
2021/04/14 04:14:05;;;;;;;25.90;14.90;;;10.40;96.10;;;;;;5094348;28;20059;-79
2021/04/14 04:16:31;;;;;;;21.40;13.65;;;10.60;95.70;;;;;;5094667;28;20043;-74
2021/04/14 04:18:56;;;;;;;24.88;14.85;;;10.90;95.20;;;;;;5094911;28;20506;-76
2021/04/14 04:21:23;;;;;;;39.13;25.05;;;11.10;94.70;;;;;;5094107;28;20028;-76
2021/04/14 04:23:49;;;;;;;36.17;23.45;;;11.30;93.80;;;;;;5094364;28;20024;-75
2021/04/14 04:26:15;;;;;;;26.05;15.25;;;11.40;93.30;;;;;;5092918;28;20031;-72
2021/04/14 04:28:41;;;;;;;28.45;18.10;;;11.60;92.70;;;;;;5093643;28;20107;-72
2021/04/14 04:31:08;;;;;;;40.83;25.42;;;11.70;92.00;;;;;;5093082;28;20111;-72
2021/04/14 04:33:34;;;;;;;40.90;24.13;;;11.70;91.10;;;;;;5091759;28;20452;-72
2021/04/14 04:35:59;;;;;;;49.95;28.13;;;11.70;90.60;;;;;;5084267;28;20099;-72
2021/04/14 04:38:26;;;;;;;36.85;23.35;;;11.60;89.20;;;;;;5093718;28;20450;-73
2021/04/14 04:40:52;;;;;;;38.17;22.08;;;11.40;87.30;;;;;;5087926;28;20024;-73
2021/04/14 04:43:18;;;;;;;36.45;19.40;;;11.10;86.30;;;;;;5090040;28;20077;-72
2021/04/14 04:45:44;;;;;;;28.30;17.67;;;10.70;86.30;;;;;;5091535;28;20051;-76
2021/04/14 04:48:10;;;;;;;38.67;22.38;;;10.50;87.00;;;;;;5089339;28;20062;-75
2021/04/14 04:50:37;;;;;;;30.63;19.35;;;10.20;87.40;;;;;;5090448;28;20070;-69
2021/04/14 04:53:08;;;;;;;33.65;20.63;;;10.10;88.00;;;;;;5091705;28;20047;-69
2021/04/14 04:55:34;;;;;;;38.72;22.77;;;9.90;88.20;;;;;;5091238;28;20028;-70
2021/04/14 04:58:00;;;;;;;37.45;21.98;;;9.80;88.40;;;;;;5085739;28;20035;-74
2021/04/14 05:00:26;;;;;;;36.72;24.30;;;9.70;88.80;;;;;;5092057;28;20142;-72
2021/04/14 05:02:53;;;;;;;51.85;33.25;;;9.60;89.70;;;;;;5085489;28;20027;-72
2021/04/14 05:05:23;;;;;;;32.35;22.52;;;9.60;89.90;;;;;;5089192;28;20168;-72
2021/04/14 05:07:50;;;;;;;41.45;24.90;;;9.50;89.90;;;;;;5088986;28;20047;-74
2021/04/14 05:10:16;;;;;;;36.85;23.63;;;9.50;89.70;;;;;;5092352;28;20039;-76
2021/04/14 05:12:42;;;;;;;37.40;22.35;;;9.50;90.10;;;;;;5085348;28;20476;-77
2021/04/14 05:15:10;;;;;;;43.50;24.63;;;9.50;90.30;;;;;;5088239;28;20016;-77
2021/04/14 05:17:36;;;;;;;39.60;22.30;;;9.50;90.50;;;;;;5094272;28;20461;-76
2021/04/14 05:20:06;;;;;;;55.15;29.25;;;9.60;90.50;;;;;;5093116;28;20474;-77
2021/04/14 05:22:31;;;;;;;81.90;42.30;;;9.70;90.60;;;;;;5088318;28;20055;-76
2021/04/14 05:24:58;;;;;;;72.55;38.60;;;9.80;90.70;;;;;;5088639;28;20089;-75
2021/04/14 05:27:24;;;;;;;48.40;26.85;;;9.90;90.40;;;;;;5087455;28;20016;-73
2021/04/14 05:29:50;;;;;;;36.53;21.13;;;10.00;90.30;;;;;;5095019;28;20541;-75
2021/04/14 05:32:17;;;;;;;36.78;22.50;;;10.00;90.20;;;;;;5092661;28;20107;-75
2021/04/14 05:34:43;;;;;;;33.22;19.77;;;10.20;90.20;;;;;;5093462;28;20030;-77
2021/04/14 05:37:09;;;;;;;32.13;17.05;;;10.40;90.40;;;;;;5091601;28;20062;-77
2021/04/14 05:39:35;;;;;;;31.35;15.82;;;10.60;90.10;;;;;;5095976;28;20047;-73
2021/04/14 05:42:00;;;;;;;19.88;14.20;;;10.80;90.00;;;;;;5101430;28;20028;-73
2021/04/14 05:44:26;;;;;;;24.35;14.30;;;11.00;88.70;;;;;;5106734;28;20021;-78
2021/04/14 05:46:52;;;;;;;25.80;13.55;;;11.20;88.60;;;;;;5101351;28;20028;-79
2021/04/14 05:49:18;;;;;;;22.17;14.00;;;11.50;86.90;;;;;;5096335;28;20515;-78
2021/04/14 05:51:44;;;;;;;20.55;14.18;;;11.60;85.10;;;;;;5082798;28;20051;-79
2021/04/14 05:54:10;;;;;;;23.33;15.82;;;11.70;84.40;;;;;;5094579;28;20028;-79
2021/04/14 05:56:35;;;;;;;22.67;15.30;;;11.70;83.60;;;;;;5092044;28;20099;-79
2021/04/14 05:59:01;;;;;;;31.75;18.65;;;11.80;82.60;;;;;;5091341;28;20016;-79
2021/04/14 06:01:30;;;;;;;21.80;15.02;;;11.80;82.50;;;;;;5092889;28;20093;-79
2021/04/14 06:03:56;;;;;;;22.40;14.77;;;11.90;81.60;;;;;;5092826;28;20020;-79
2021/04/14 06:06:22;;;;;;;28.25;16.08;;;11.90;81.00;;;;;;5091557;28;20500;-78
2021/04/14 06:08:47;;;;;;;16.95;11.55;;;12.00;81.70;;;;;;5091083;28;20462;-79
2021/04/14 06:11:14;;;;;;;26.65;13.85;;;12.20;80.70;;;;;;5091143;28;20051;-79
2021/04/14 06:13:40;;;;;;;17.40;13.02;;;12.60;80.00;;;;;;5092830;28;20020;-79
2021/04/14 06:16:09;;;;;;;23.70;13.88;;;12.80;79.20;;;;;;5091733;28;20342;-78
2021/04/14 06:18:35;;;;;;;24.05;13.35;;;13.00;78.10;;;;;;5092937;28;20420;-79
2021/04/14 06:21:03;;;;;;;18.75;12.13;;;13.10;76.60;;;;;;5091469;28;20020;-79
2021/04/14 06:23:29;;;;;;;20.23;13.43;;;13.40;76.80;;;;;;5093093;28;20012;-79
2021/04/14 06:28:28;;;;;;;19.38;13.95;;;13.70;75.20;;;;;;5092627;28;20020;-79
2021/04/14 06:30:54;;;;;;;27.30;15.80;;;13.90;75.40;;;;;;5091011;28;20028;-78
2021/04/14 06:33:22;;;;;;;23.58;13.27;;;14.30;74.20;;;;;;5093071;28;20012;-79
2021/04/14 06:35:49;;;;;;;21.80;15.77;;;14.50;72.10;;;;;;5092749;28;20062;-78
2021/04/14 06:38:18;;;;;;;21.50;15.05;;;14.60;71.30;;;;;;5091551;28;20455;-78
2021/04/14 06:43:26;;;;;;;15.57;11.52;;;15.50;71.30;;;;;;5080717;28;20027;-79
2021/04/14 06:45:57;;;;;;;21.20;15.25;;;16.00;68.50;;;;;;5092607;28;20095;-79
2021/04/14 06:48:54;;;;;;;19.95;14.52;;;16.20;66.50;;;;;;5091321;28;20016;-77
2021/04/14 06:51:23;;;;;;;20.25;13.43;;;16.20;64.20;;;;;;5095471;28;20051;-78
2021/04/14 06:54:06;;;;;;;17.48;11.63;;;16.20;64.20;;;;;;5095046;28;20020;-78
2021/04/14 06:56:34;;;;;;;21.35;12.45;;;16.10;61.90;;;;;;5096492;28;20477;-78
2021/04/14 06:59:02;;;;;;;20.48;15.43;;;15.90;60.70;;;;;;5096550;28;20027;-77
2021/04/14 07:01:40;;;;;;;16.60;10.55;;;15.70;60.80;;;;;;5082915;28;20029;-77
2021/04/14 07:04:13;;;;;;;16.73;11.75;;;15.40;60.20;;;;;;5095760;28;20019;-77
2021/04/14 07:06:41;;;;;;;17.90;10.82;;;15.30;61.00;;;;;;5091799;28;20054;-77
2021/04/14 07:09:32;;;;;;;15.98;10.52;;;15.30;60.60;;;;;;5095805;28;20016;-79
2021/04/14 07:12:00;;;;;;;15.15;10.18;;;15.20;60.80;;;;;;5095053;28;20031;-79
2021/04/14 07:14:27;;;;;;;20.30;11.05;;;15.10;60.90;;;;;;5087810;28;20058;-78
2021/04/14 07:17:16;;;;;;;14.80;10.63;;;15.00;60.70;;;;;;5092054;28;20107;-79
2021/04/14 07:19:54;;;;;;;18.35;11.73;;;14.80;60.50;;;;;;5095289;28;20077;-79
2021/04/14 07:22:26;;;;;;;14.57;10.48;;;14.70;60.90;;;;;;5080687;28;20024;-78
2021/04/14 07:25:04;;;;;;;12.50;9.52;;;14.60;61.10;;;;;;5091809;28;20411;-78
2021/04/14 07:27:48;;;;;;;18.60;10.48;;;14.40;60.90;;;;;;5091771;28;20017;-78
2021/04/14 07:30:24;;;;;;;14.05;10.35;;;14.20;61.40;;;;;;5086410;28;20047;-78
2021/04/14 07:33:05;;;;;;;17.90;11.15;;;14.10;61.80;;;;;;5094715;28;20069;-78
2021/04/14 07:35:37;;;;;;;17.10;10.60;;;14.10;62.20;;;;;;5091558;28;20024;-79
2021/04/14 07:38:09;;;;;;;13.18;9.95;;;14.20;62.80;;;;;;5091415;28;20020;-79
2021/04/14 07:40:53;;;;;;;15.15;10.05;;;14.40;62.70;;;;;;5094723;28;20024;-79
2021/04/14 07:43:38;;;;;;;12.77;8.63;;;14.50;62.60;;;;;;5081884;28;20024;-79
2021/04/14 07:46:08;;;;;;;17.23;9.48;;;15.40;63.80;;;;;;5095269;28;20029;-76
2021/04/14 07:48:38;;;;;;;15.93;9.65;;;16.10;62.30;;;;;;5096426;28;20036;-78
2021/04/14 07:51:09;;;;;;;15.65;8.63;;;16.60;60.00;;;;;;5096029;28;20028;-79
2021/04/14 07:53:38;;;;;;;12.18;8.40;;;17.20;59.40;;;;;;5097647;28;20477;-78
2021/04/14 07:56:06;;;;;;;11.80;8.60;;;17.80;57.70;;;;;;5098253;28;20358;-78
2021/04/14 07:58:33;;;;;;;20.10;14.80;;;18.10;56.30;;;;;;5097200;28;20462;-78
2021/04/14 08:01:12;;;;;;;16.15;10.45;;;18.30;54.60;;;;;;5086767;28;20031;-78
2021/04/14 08:03:38;;;;;;;13.55;7.78;;;18.70;54.30;;;;;;5095553;28;20127;-78
2021/04/14 08:06:19;;;;;;;10.23;7.45;;;19.20;53.70;;;;;;5099167;28;20467;-77
2021/04/14 08:08:47;;;;;;;16.80;7.90;;;19.90;52.50;;;;;;5090584;28;20037;-78
2021/04/14 08:11:29;;;;;;;10.98;7.40;;;20.30;51.00;;;;;;5098372;28;20037;-78
2021/04/14 08:14:07;;;;;;;10.73;6.43;;;20.50;49.60;;;;;;5095411;28;20027;-78
2021/04/14 08:16:39;;;;;;;16.15;7.32;;;20.40;49.20;;;;;;5095681;28;20031;-78
2021/04/14 08:19:28;;;;;;;9.77;5.90;;;20.70;49.10;;;;;;5095015;28;20012;-78
2021/04/14 08:22:01;;;;;;;13.20;6.10;;;20.90;48.40;;;;;;5093774;28;20032;-77
2021/04/14 08:24:55;;;;;;;69.78;36.33;;;20.90;47.10;;;;;;5094301;28;20027;-78
2021/04/14 08:27:25;;;;;;;10.20;5.80;;;20.90;46.30;;;;;;5092912;28;20024;-78
2021/04/14 08:30:05;;;;;;;9.98;6.18;;;20.70;46.50;;;;;;5085867;28;20040;-77
2021/04/14 08:32:37;;;;;;;8.43;4.45;;;20.90;46.50;;;;;;5091180;28;20036;-77
2021/04/14 08:35:24;;;;;;;7.18;4.38;;;21.60;45.70;;;;;;5093863;28;20073;-78
2021/04/14 08:38:20;;;;;;;7.72;4.45;;;21.90;44.70;;;;;;5110576;28;20480;-78
2021/04/14 08:40:57;;;;;;;6.50;4.45;;;21.80;44.20;;;;;;5092269;28;20020;-77
2021/04/14 08:43:41;;;;;;;8.80;4.90;;;21.80;43.50;;;;;;5094802;28;20028;-76
2021/04/14 08:46:25;;;;;;;6.75;4.10;;;21.60;43.90;;;;;;5094664;28;20061;-76
2021/04/14 08:49:04;;;;;;;7.60;4.82;;;21.50;42.30;;;;;;5089564;28;20024;-77
2021/04/14 08:51:36;;;;;;;5.97;4.63;;;21.10;43.00;;;;;;5094104;28;20405;-77
2021/04/14 08:54:03;;;;;;;7.30;4.10;;;21.00;43.40;;;;;;5094830;28;20028;-77
2021/04/14 08:56:29;;;;;;;8.95;5.30;;;21.00;42.70;;;;;;5094704;28;20103;-77
2021/04/14 08:58:56;;;;;;;7.15;4.70;;;20.90;42.80;;;;;;5073000;28;20526;-77
2021/04/14 09:01:23;;;;;;;7.03;4.97;;;20.70;43.50;;;;;;5089904;28;20054;-76
2021/04/14 09:03:49;;;;;;;7.95;5.00;;;20.60;43.80;;;;;;5089301;28;20016;-77
2021/04/14 09:06:18;;;;;;;9.48;5.10;;;20.30;43.70;;;;;;5089709;28;20033;-77
2021/04/14 09:08:48;;;;;;;6.40;3.88;;;20.20;44.30;;;;;;5092847;28;20092;-77
2021/04/14 09:11:24;;;;;;;11.05;7.13;;;20.10;43.70;;;;;;5092632;28;20109;-77
2021/04/14 09:14:03;;;;;;;22.92;11.23;;;20.10;45.30;;;;;;5092815;28;20027;-77
2021/04/14 09:16:30;;;;;;;20.55;10.90;;;19.80;46.30;;;;;;5082167;28;20036;-77
2021/04/14 09:19:11;;;;;;;22.92;11.15;;;19.40;47.20;;;;;;5091751;28;20029;-77
2021/04/14 09:22:16;;;;;;;17.25;10.52;;;19.00;48.50;;;;;;5092758;28;20024;-77
2021/04/14 09:24:54;;;;;;;16.65;11.15;;;18.70;49.10;;;;;;5031746;28;20030;-77
2021/04/14 09:27:30;;;;;;;16.05;11.82;;;18.40;49.80;;;;;;5031392;28;20033;-78
2021/04/14 09:30:15;;;;;;;21.27;12.02;;;18.10;50.70;;;;;;5067024;28;20042;-77
2021/04/14 09:32:52;;;;;;;18.48;11.07;;;17.80;50.80;;;;;;5078077;28;20557;-77
2021/04/14 09:35:30;;;;;;;16.58;10.73;;;17.30;51.40;;;;;;5092563;28;20020;-78
2021/04/14 09:38:23;;;;;;;17.00;10.68;;;16.80;52.20;;;;;;5073353;28;20027;-77
2021/04/14 09:40:49;;;;;;;17.00;10.98;;;16.40;53.20;;;;;;5072843;28;20039;-78
2021/04/14 09:43:18;;;;;;;22.38;12.38;;;16.10;54.10;;;;;;5094332;28;20035;-78
2021/04/14 09:45:57;;;;;;;21.65;11.10;;;15.80;55.20;;;;;;5079813;28;20024;-77
2021/04/14 09:48:23;;;;;;;18.13;11.93;;;15.60;56.00;;;;;;5076262;28;20016;-77
2021/04/14 09:50:50;;;;;;;19.02;10.85;;;15.40;56.20;;;;;;5083808;28;20040;-79
2021/04/14 09:53:28;;;;;;;16.33;12.00;;;15.30;56.80;;;;;;5086233;28;20024;-78
2021/04/14 09:56:23;;;;;;;18.88;11.05;;;15.10;57.40;;;;;;5081194;28;20027;-78
2021/04/14 09:58:54;;;;;;;16.83;11.32;;;14.90;57.90;;;;;;5090206;28;20027;-79
2021/04/14 10:01:22;;;;;;;19.92;11.75;;;14.70;58.60;;;;;;5093123;28;20024;-77
2021/04/14 10:03:49;;;;;;;18.38;11.88;;;14.60;59.30;;;;;;5092752;28;20012;-78
2021/04/14 10:06:23;;;;;;;17.58;10.40;;;14.50;59.80;;;;;;5093856;28;20031;-80
2021/04/14 10:08:55;;;;;;;18.40;10.82;;;14.40;60.40;;;;;;5094219;28;20035;-78
2021/04/14 10:11:32;;;;;;;15.10;10.00;;;14.30;60.70;;;;;;5093131;28;20033;-79
2021/04/14 10:14:14;;;;;;;24.92;12.30;;;14.30;61.30;;;;;;5097098;28;20020;-79
2021/04/14 10:16:40;;;;;;;18.92;10.90;;;14.20;61.80;;;;;;5102348;28;20409;-78
2021/04/14 10:19:09;;;;;;;16.95;11.68;;;14.20;62.20;;;;;;5095039;28;20027;-79
2021/04/14 10:21:40;;;;;;;17.60;11.52;;;14.20;62.60;;;;;;5083206;28;20036;-78
2021/04/14 10:24:09;;;;;;;17.77;11.68;;;14.10;62.80;;;;;;5095268;28;20031;-78
2021/04/14 10:26:38;;;;;;;22.33;11.73;;;14.00;63.00;;;;;;5093638;28;20068;-79
2021/04/14 10:29:09;;;;;;;18.67;11.77;;;13.90;63.40;;;;;;5093320;28;20454;-78
2021/04/14 10:31:37;;;;;;;22.50;10.32;;;13.90;63.70;;;;;;5083308;28;20032;-79
2021/04/14 10:34:29;;;;;;;25.77;11.40;;;13.80;64.10;;;;;;5089890;28;20017;-80
2021/04/14 10:36:56;;;;;;;24.75;15.00;;;13.70;64.60;;;;;;5093762;28;20106;-80
2021/04/14 10:39:34;;;;;;;18.13;11.65;;;13.60;65.20;;;;;;5095261;28;20020;-79
2021/04/14 10:42:22;;;;;;;18.60;11.45;;;13.70;65.20;;;;;;5081886;28;20493;-79
2021/04/14 10:44:48;;;;;;;17.55;11.80;;;13.70;64.80;;;;;;5092652;28;20339;-79
2021/04/14 10:47:32;;;;;;;24.48;13.15;;;13.90;64.90;;;;;;5092790;28;20031;-80
2021/04/14 10:50:13;;;;;;;25.38;12.82;;;14.10;64.80;;;;;;5091620;28;20020;-79
2021/04/14 10:52:38;;;;;;;17.98;11.27;;;14.70;64.50;;;;;;5091855;28;20024;-79
2021/04/14 10:55:14;;;;;;;20.45;11.13;;;14.90;63.20;;;;;;5089991;28;20024;-79
2021/04/14 10:57:43;;;;;;;16.63;10.88;;;15.00;62.30;;;;;;5088473;28;20374;-79
2021/04/14 11:00:11;;;;;;;17.80;12.10;;;14.80;62.00;;;;;;5090125;28;20374;-80
2021/04/14 11:02:40;;;;;;;18.25;10.93;;;14.80;62.60;;;;;;5083575;28;20498;-79
2021/04/14 11:05:12;;;;;;;21.92;12.98;;;14.70;62.70;;;;;;5088591;28;20021;-79
2021/04/14 11:07:38;;;;;;;22.38;11.50;;;14.60;62.80;;;;;;5083979;28;20045;-79
2021/04/14 11:10:08;;;;;;;17.65;11.18;;;14.60;62.80;;;;;;5088385;28;20447;-79
2021/04/14 11:12:35;;;;;;;13.68;9.38;;;14.50;63.00;;;;;;5074192;28;20116;-79
2021/04/14 11:15:10;;;;;;;20.90;10.95;;;14.60;63.20;;;;;;5083550;28;20024;-79
2021/04/14 11:17:36;;;;;;;15.05;9.35;;;14.80;63.40;;;;;;5093009;28;20022;-79
2021/04/14 11:20:24;;;;;;;15.77;9.38;;;15.10;63.20;;;;;;5093254;28;20026;-79
2021/04/14 11:22:53;;;;;;;16.52;9.48;;;15.50;61.50;;;;;;5079584;28;20070;-79
2021/04/14 11:25:24;;;;;;;16.92;10.32;;;15.50;61.70;;;;;;5078846;28;20020;-79
2021/04/14 11:28:02;;;;;;;17.92;11.20;;;15.30;60.90;;;;;;5087902;28;20032;-79
2021/04/14 11:30:29;;;;;;;16.85;10.40;;;15.20;61.30;;;;;;5088408;28;20059;-79
2021/04/14 11:33:00;;;;;;;17.42;10.82;;;15.20;61.20;;;;;;5087840;28;20027;-79
2021/04/14 11:35:49;;;;;;;16.98;10.00;;;15.10;61.30;;;;;;5088433;28;20043;-79
2021/04/14 11:38:42;;;;;;;18.65;10.38;;;15.00;61.30;;;;;;5082937;28;20117;-78
2021/04/14 11:41:15;;;;;;;18.90;10.23;;;14.80;61.60;;;;;;5095957;28;20362;-78
2021/04/14 11:43:42;;;;;;;18.75;10.57;;;14.60;62.00;;;;;;5096487;28;20028;-78
2021/04/14 11:46:28;;;;;;;17.20;10.75;;;14.50;62.60;;;;;;5080512;28;20054;-78
2021/04/14 11:49:06;;;;;;;16.17;10.85;;;14.30;63.20;;;;;;5094805;28;20117;-79
2021/04/14 11:51:37;;;;;;;18.38;10.75;;;14.30;63.60;;;;;;5096205;28;20141;-79
2021/04/14 11:54:31;;;;;;;23.83;11.95;;;14.20;63.90;;;;;;5095000;28;20028;-78
2021/04/14 11:57:11;;;;;;;23.92;12.52;;;14.20;64.30;;;;;;5085751;28;20077;-80
2021/04/14 11:59:39;;;;;;;26.05;14.68;;;14.20;64.60;;;;;;5094984;28;20016;-79
2021/04/14 12:02:11;;;;;;;31.40;18.70;;;14.10;64.80;;;;;;5092103;28;20487;-79
2021/04/14 12:04:40;;;;;;;31.70;15.27;;;14.10;65.10;;;;;;5102193;28;20121;-79
2021/04/14 12:07:06;;;;;;;33.60;16.23;;;14.10;65.10;;;;;;5091128;28;20102;-79
2021/04/14 12:09:32;;;;;;;37.40;19.15;;;14.10;65.20;;;;;;5083821;28;20043;-79
2021/04/14 12:12:02;;;;;;;32.80;18.23;;;14.00;65.30;;;;;;5094656;28;20070;-79
2021/04/14 12:14:28;;;;;;;28.10;14.63;;;14.00;65.50;;;;;;5095304;28;20030;-79
2021/04/14 12:16:54;;;;;;;25.67;15.85;;;14.00;65.40;;;;;;5095529;28;20020;-80
2021/04/14 12:19:20;;;;;;;26.27;14.60;;;14.00;65.50;;;;;;5094604;28;20016;-79
2021/04/14 12:21:46;;;;;;;25.83;14.90;;;14.00;65.60;;;;;;5082756;28;20027;-79
2021/04/14 12:24:11;;;;;;;28.70;16.48;;;14.00;65.50;;;;;;5091481;28;20029;-79
2021/04/14 12:26:37;;;;;;;26.65;14.40;;;14.10;65.10;;;;;;5092899;28;20074;-80
2021/04/14 12:29:03;;;;;;;25.77;13.82;;;14.10;65.10;;;;;;5092746;28;20525;-79
2021/04/14 12:31:31;;;;;;;22.73;11.85;;;14.10;65.10;;;;;;5095132;28;20073;-80
2021/04/14 12:34:02;;;;;;;23.73;11.20;;;14.20;65.00;;;;;;5097270;28;20028;-79
2021/04/14 12:36:28;;;;;;;25.60;11.98;;;14.20;65.00;;;;;;5097296;28;20012;-78
2021/04/14 12:38:54;;;;;;;24.05;12.90;;;14.40;64.80;;;;;;5099219;28;20095;-80
2021/04/14 12:41:19;;;;;;;23.70;12.50;;;14.40;64.60;;;;;;5098380;28;20020;-79
2021/04/14 12:43:45;;;;;;;22.05;12.52;;;14.50;64.20;;;;;;5083822;28;20121;-78
2021/04/14 12:46:11;;;;;;;30.40;13.80;;;14.50;64.20;;;;;;5100047;28;20036;-79
2021/04/14 12:48:43;;;;;;;18.48;10.63;;;14.60;64.10;;;;;;5091091;28;20377;-79
2021/04/14 12:51:29;;;;;;;19.17;10.98;;;14.70;63.70;;;;;;5094676;28;20448;-79
2021/04/14 12:53:54;;;;;;;;;;;14.70;63.60;;;;;;5097556;28;20517;-79